Terminal Aerodrome Forecast
Issued by NWS

Home | Current Version | Previous Version | Text Only | Print | Product List | Glossary On
Versions: 1 2 3 4 5 6 7 8 9 10 11 12 13 14 15 16 17 18
000
FTUS43 KEAX 270317 AAA
TAFMKC
TAF AMD
KMKC 270317Z 2703/2724 05008KT P6SM -SHRA SCT030 BKN060
     FM270600 05006KT 5SM -SHRA BR OVC022
      TEMPO 2707/2711 3SM -SHRA BR OVC012
     FM271600 01008KT P6SM OVC018
     FM272300 35007KT P6SM SCT025=

USA.gov is the U.S. government's official web portal to all federal, state and local government web resources and services.